Lebanon, Nebraska
Current Conditions -  °F | °C
As of 12:53 AM on Saturday 25 Oct 2014 (Local Time) from KMCK Reporting Station
Clear Clear  
Wind Chill: 47°   Ceiling: Unl
Heat Index: 47°   Visibility: 10mi
Dew Point: 36°   Wind: 3mph
Humidity: 66%   Direction: 300°WNW
Pressure: 30.07"   Gusts: NA
Location:  40.05°N, 100.28°W
Report Text: KMCK 250553Z AUTO 30003KT 10SM CLR 08/02 A3007 RMK AO2 SLP172 T00830022 10222 20083 403170083 51010
Loading
Personal Weather Stations






























Interactive Weather Map
Tropical Storm Tracking
New forecast layout! Learn more

10-Day Weather Forecast

Advertisements
Track Severe Weather on mobile